Louis Armstrong New Orleans International Airport
KMSY : now visible

Airfield :











YOU CAN JOIN US ON...

 
LOGIN :

Register | Disclaimer

   EN    FR    IT 

 









Legend :    VFR   Marginal VFR   IFR   Intensive IFR   Very Intensive IFR
Visi :
Ceiling :
>= 8 km
>= 3000ft
5 to 8 km
1000 to 3000 ft
1500m to 5 km
500 to 1000 ft
800 to 1500m
200 to 500 ft
< 800m
< 200 ft
Symbols :   Thunderstorms  Fog  Heavy snow  Heavy precipitations  Wind > 20 kt






- Airport Elevation : 4 ft
- IATA code : MSY


KMSY - Louis Armstrong New Orleans International

CURRENT METAR :
  • 220653Z 15007KT 10SM BKN250 19/16 A3008 RMK AO2 SLP189 T01940161

EXPIRED METARs :
  • 220553Z 14006KT 10SM BKN250 19/16 A3008 RMK AO2 SLP190 T01890156 10211 20183 402610111 58007
  • 220453Z 14004KT 10SM BKN250 18/15 A3009 RMK AO2 SLP193 T01830150

TAF KMSY
Valid from the 22 at 06:00 until the 23 at 12:00 UTC


220521Z 2206/2312 14005KT P6SM SCT080 BKN250
FM221500 17009KT P6SM SCT030 BKN250
FM230300 18006KT 5SM -SHRA SCT025 BKN060
FM230600 19005KT 5SM -SHRA SCT025 BKN030
FM231100 20005KT 5SM -SHRA SCT008 BKN030



MET'MAP, your aeronautical weather chart ! - Copyright ORBIFLY December 2007 - Disclaimer

ORBIFLY MET'MAP TEAM :

Programming & Development : Alexandra Zaïnal
Concept & Development : Baudouin d'Aumeries
Co-Development & Prog : Marc-Olivier Méhu
Technical & hardware support : Manuel Goepfert

Contact : metmap@orbifly.com




SOURCES & CREDITS :

   NOAA       Earth
Advisory